If you wish to contribute or participate in the discussions about articles you are invited to join SKYbrary as a registered user

 Actions

Saint-Étienne-Bouthéon Airport

From SKYbrary Wiki

LFMH
Airport
ICAO: LFMH – IATA: EBU
Summary
Name Saint-Étienne-Bouthéon Airport
Region Europe
Territory France FR.gif
Location , Rhone-Alpes
Serving St-Etienne
Elevation 403.86 m
1,325 ft
1,325 ft403.86 m
Type medium airport
Coordinates 45° 32' 25.99" N, 4° 17' 47.00" E
Runways
Designator Length Width Surface ROPS
18/36 2300 m7,545.932 ft
45 m147.638 ft
ASP yes/yes


METAR
Observation LFMH 110730Z AUTO VRB01KT 9999 -RA BKN050 BKN062 BKN072 02/M00 Q1014 NOSIG
Station St-Etienne Boutheon
Date/Time 11 December 2019 07:30:00
Wind direction °
Wind speed 01 kts
Lowest cloud amount broken clouds
Temperature 2°C
Dew point
Humidity 86%
QNH 1014 hPa
Weather condition light rain